Time;durP1;ratioP1;P1;durP2;ratioP2;P2;SDS_P1;SDS_P2;PMS_P1;PMS_P2;Temp;Humidity;BMP_temperature;BMP_pressure;BME280_temperature;BME280_humidity;BME280_pressure;Samples;Min_cycle;Max_cycle;Signal;HPM_P1;HPM_P2
2021/07/01 00:00:22;;;;;;;25.80;12.80;;;;;;;23.51;39.20;100984.16;4404836;32;20042;-75
2021/07/01 00:02:48;;;;;;;25.10;13.62;;;;;;;23.53;39.13;100990.19;4396296;32;20065;-75
2021/07/01 00:05:15;;;;;;;26.17;13.77;;;;;;;23.52;39.27;100982.09;4401353;32;20073;-77
2021/07/01 00:07:42;;;;;;;27.90;12.05;;;;;;;23.67;39.15;100982.59;4394407;32;20042;-75
2021/07/01 00:10:11;;;;;;;22.27;11.45;;;;;;;23.67;38.96;100985.47;4411697;32;20563;-75
2021/07/01 00:12:37;;;;;;;21.08;11.10;;;;;;;23.74;38.54;100984.94;4397207;32;20472;-77
2021/07/01 00:15:05;;;;;;;24.87;11.40;;;;;;;23.48;38.49;100985.19;4397664;32;20080;-75
2021/07/01 00:17:31;;;;;;;20.58;10.85;;;;;;;23.74;38.17;100976.31;4398739;32;20046;-76
2021/07/01 00:19:56;;;;;;;18.30;10.52;;;;;;;23.56;38.38;100976.84;4399859;32;20030;-76
2021/07/01 00:22:23;;;;;;;22.37;10.35;;;;;;;23.44;38.42;100984.69;4398685;32;20520;-77
2021/07/01 00:24:49;;;;;;;25.25;10.57;;;;;;;23.51;38.40;100980.53;4399000;32;20073;-74
2021/07/01 00:27:14;;;;;;;15.80;9.95;;;;;;;23.52;38.28;100982.09;4400607;32;20468;-73
2021/07/01 00:29:40;;;;;;;19.23;9.88;;;;;;;23.44;38.44;100986.81;4398009;32;20050;-75
2021/07/01 00:32:06;;;;;;;22.02;10.30;;;;;;;23.34;38.70;100985.47;4398973;32;20026;-76
2021/07/01 00:34:32;;;;;;;17.40;9.27;;;;;;;23.23;38.97;100989.09;4400251;32;20140;-78
2021/07/01 00:36:58;;;;;;;22.08;9.50;;;;;;;23.19;38.86;100984.91;4398972;32;20337;-77
2021/07/01 00:39:24;;;;;;;19.58;10.13;;;;;;;23.18;38.82;100989.09;4399523;32;20090;-74
2021/07/01 00:41:50;;;;;;;23.10;10.65;;;;;;;23.10;38.85;100985.94;4400060;32;20042;-75
2021/07/01 00:44:16;;;;;;;23.27;11.27;;;;;;;23.08;39.08;100988.56;4399215;32;20089;-75
2021/07/01 00:46:42;;;;;;;22.02;11.73;;;;;;;22.95;39.66;100987.50;4397211;32;20086;-75
2021/07/01 00:49:07;;;;;;;25.25;11.70;;;;;;;23.00;39.45;100987.50;4397382;32;20038;-74
2021/07/01 00:51:33;;;;;;;26.52;12.18;;;;;;;22.95;39.63;100985.38;4397038;32;20046;-76
2021/07/01 00:53:59;;;;;;;20.75;11.12;;;;;;;22.76;40.04;100994.97;4401107;32;20434;-75
2021/07/01 00:56:25;;;;;;;21.83;10.55;;;;;;;22.75;40.14;100994.22;4400165;32;20078;-76
2021/07/01 00:58:54;;;;;;;19.37;10.77;;;;;;;22.65;40.24;100992.87;4398798;32;20100;-77
2021/07/01 01:01:22;;;;;;;22.62;10.57;;;;;;;22.81;40.08;100988.47;4399916;32;20062;-75
2021/07/01 01:03:48;;;;;;;19.33;11.65;;;;;;;22.66;40.40;100985.84;4399690;32;20057;-74
2021/07/01 01:06:14;;;;;;;22.20;11.85;;;;;;;22.54;40.76;100984.22;4399837;32;20099;-75
2021/07/01 01:08:40;;;;;;;24.73;11.60;;;;;;;22.31;41.11;100988.28;4399642;32;20086;-74
2021/07/01 01:11:06;;;;;;;23.55;11.18;;;;;;;22.40;40.95;100981.53;4397575;32;20039;-76
2021/07/01 01:13:31;;;;;;;22.27;10.88;;;;;;;22.26;41.22;100982.50;4399714;32;20495;-75
2021/07/01 01:16:00;;;;;;;19.60;10.30;;;;;;;22.27;41.19;100976.25;4397389;32;20116;-75
2021/07/01 01:18:26;;;;;;;20.15;10.75;;;;;;;22.48;40.94;100974.78;4397787;32;20077;-75
2021/07/01 01:20:55;;;;;;;23.02;11.73;;;;;;;22.30;41.26;100965.84;4399564;32;20394;-76
2021/07/01 01:23:21;;;;;;;23.77;11.23;;;;;;;22.37;41.45;100968.22;4399343;32;20038;-75
2021/07/01 01:25:50;;;;;;;23.52;11.73;;;;;;;22.09;41.81;100970.16;4398724;32;20061;-75
2021/07/01 01:28:16;;;;;;;23.12;10.93;;;;;;;22.09;41.81;100964.44;4395620;32;20051;-75
2021/07/01 01:30:43;;;;;;;23.42;10.90;;;;;;;22.00;41.72;100971.12;4398997;32;20070;-75
2021/07/01 01:33:10;;;;;;;19.60;11.02;;;;;;;22.01;42.02;100972.72;4399522;32;20041;-75
2021/07/01 01:35:37;;;;;;;36.90;14.07;;;;;;;22.01;41.89;100969.06;4397765;32;20062;-76
2021/07/01 01:38:06;;;;;;;30.15;12.70;;;;;;;21.81;42.59;100964.25;4397871;32;20064;-75
2021/07/01 01:40:31;;;;;;;30.83;12.68;;;;;;;21.79;42.43;100958.28;4398014;32;20042;-76
2021/07/01 01:42:57;;;;;;;18.15;10.98;;;;;;;21.66;42.54;100957.88;4398518;32;21161;-75
2021/07/01 01:45:23;;;;;;;23.77;11.75;;;;;;;21.57;42.51;100952.34;4397465;32;20046;-76
2021/07/01 01:47:50;;;;;;;24.65;12.10;;;;;;;21.38;43.23;100951.16;4398864;32;20144;-77
2021/07/01 01:50:19;;;;;;;24.25;11.73;;;;;;;21.36;43.30;100948.78;4396527;32;20092;-75
2021/07/01 01:52:46;;;;;;;21.35;11.15;;;;;;;21.36;43.17;100951.66;4399961;32;20089;-76
2021/07/01 01:55:13;;;;;;;20.70;10.80;;;;;;;21.34;43.12;100957.12;4396346;32;20034;-76
2021/07/01 01:57:42;;;;;;;17.35;10.18;;;;;;;21.22;43.49;100955.44;4399677;32;20049;-76
2021/07/01 02:00:10;;;;;;;20.85;10.98;;;;;;;21.41;43.10;100953.78;4396675;32;20074;-76
2021/07/01 02:02:37;;;;;;;23.65;11.20;;;;;;;21.21;43.76;100958.81;4398008;32;20382;-76
2021/07/01 02:05:03;;;;;;;20.10;11.57;;;;;;;21.12;43.85;100959.00;4398570;32;20104;-76
2021/07/01 02:07:29;;;;;;;19.85;11.65;;;;;;;21.11;43.85;100961.06;4397674;32;20084;-74
2021/07/01 02:09:55;;;;;;;25.02;11.93;;;;;;;21.06;43.94;100958.94;4396913;32;20131;-75
2021/07/01 02:12:21;;;;;;;23.30;11.85;;;;;;;20.97;44.22;100959.13;4394808;32;20367;-75
2021/07/01 02:14:47;;;;;;;19.17;11.55;;;;;;;21.01;44.19;100961.75;4397127;32;20297;-75
2021/07/01 02:17:13;;;;;;;23.40;10.80;;;;;;;20.78;44.56;100955.00;4398216;32;20096;-74
2021/07/01 02:19:38;;;;;;;19.65;11.95;;;;;;;20.91;44.12;100963.97;4396669;32;20132;-76
2021/07/01 02:22:04;;;;;;;20.60;11.75;;;;;;;20.99;44.07;100959.37;4398898;32;20069;-75
2021/07/01 02:24:31;;;;;;;19.08;11.63;;;;;;;21.00;44.05;100954.47;4409727;32;20158;-75
2021/07/01 02:26:57;;;;;;;24.92;11.98;;;;;;;20.81;44.09;100954.00;4399819;32;20081;-76
2021/07/01 02:29:23;;;;;;;22.45;12.73;;;;;;;20.90;44.09;100956.66;4397298;32;20135;-77
2021/07/01 02:31:48;;;;;;;21.92;11.07;;;;;;;20.97;43.83;100953.41;4398259;32;20095;-75
2021/07/01 02:34:15;;;;;;;24.10;11.57;;;;;;;20.86;43.99;100949.63;4396270;32;20520;-74
2021/07/01 02:36:41;;;;;;;20.58;11.52;;;;;;;21.17;43.69;100947.59;4398807;32;20034;-75
2021/07/01 02:39:07;;;;;;;18.95;10.38;;;;;;;21.02;43.70;100949.78;4398126;32;20096;-76
2021/07/01 02:41:35;;;;;;;25.98;11.80;;;;;;;20.94;43.82;100934.38;4399037;32;20077;-74
2021/07/01 02:44:01;;;;;;;21.92;10.70;;;;;;;21.16;43.63;100936.66;4398597;32;20043;-75
2021/07/01 02:46:27;;;;;;;20.88;12.18;;;;;;;20.95;43.79;100947.38;4396935;32;20127;-76
2021/07/01 02:48:52;;;;;;;20.08;12.32;;;;;;;20.83;44.06;100942.03;4397784;32;20054;-76
2021/07/01 02:51:19;;;;;;;20.95;11.68;;;;;;;20.82;43.97;100943.31;4397096;32;20054;-75
2021/07/01 02:53:44;;;;;;;20.02;11.02;;;;;;;20.84;44.00;100937.88;4398317;32;20454;-75
2021/07/01 02:56:10;;;;;;;27.35;11.77;;;;;;;20.73;44.20;100944.28;4399763;32;20026;-75
2021/07/01 02:58:36;;;;;;;23.48;11.85;;;;;;;20.69;44.14;100946.56;4399134;32;20157;-76
2021/07/01 03:01:02;;;;;;;19.20;11.75;;;;;;;20.73;44.26;100944.28;4393039;32;20117;-75
2021/07/01 03:03:28;;;;;;;25.85;12.15;;;;;;;20.78;44.13;100942.75;4397156;32;20082;-76
2021/07/01 03:05:54;;;;;;;27.73;11.93;;;;;;;20.73;43.98;100946.34;4399020;32;20065;-76
2021/07/01 03:08:20;;;;;;;22.58;11.50;;;;;;;20.75;44.22;100940.91;4396720;32;20082;-76
2021/07/01 03:10:46;;;;;;;22.92;11.57;;;;;;;20.73;44.27;100946.34;4399379;32;20094;-74
2021/07/01 03:13:12;;;;;;;21.12;11.93;;;;;;;20.70;44.34;100942.41;4401727;32;20074;-74
2021/07/01 03:15:37;;;;;;;26.20;11.43;;;;;;;20.79;44.15;100941.47;4400080;32;20155;-75
2021/07/01 03:18:04;;;;;;;19.75;10.68;;;;;;;20.75;44.28;100938.84;4399331;32;20421;-75
2021/07/01 03:20:29;;;;;;;22.37;12.02;;;;;;;20.74;44.42;100939.34;4400769;32;20021;-74
2021/07/01 03:22:55;;;;;;;19.55;11.02;;;;;;;20.77;44.31;100938.34;4401616;32;20108;-77
2021/07/01 03:25:21;;;;;;;23.62;12.82;;;;;;;20.74;44.35;100925.03;4402529;32;20026;-76
2021/07/01 03:27:47;;;;;;;19.45;11.10;;;;;;;20.82;44.32;100944.12;4402401;32;20702;-75
2021/07/01 03:30:13;;;;;;;24.52;11.65;;;;;;;20.82;44.22;100944.12;4398895;32;20042;-75
2021/07/01 03:32:39;;;;;;;25.40;12.93;;;;;;;20.87;43.85;100946.25;4400410;32;20159;-75
2021/07/01 03:35:05;;;;;;;24.17;12.07;;;;;;;20.71;43.89;100952.56;4399723;32;20421;-76
2021/07/01 03:37:31;;;;;;;19.90;12.15;;;;;;;20.71;43.98;100940.34;4401561;32;20038;-76
2021/07/01 03:39:58;;;;;;;22.83;11.63;;;;;;;20.57;44.06;100933.44;4400655;32;20124;-75
2021/07/01 03:42:24;;;;;;;22.73;11.73;;;;;;;20.65;44.14;100942.37;4400444;32;20051;-76
2021/07/01 03:44:50;;;;;;;20.05;11.75;;;;;;;20.69;44.06;100946.56;4401661;32;20069;-74
2021/07/01 03:47:16;;;;;;;21.87;12.70;;;;;;;20.59;44.24;100942.28;4401352;32;20084;-76
2021/07/01 03:49:43;;;;;;;23.40;11.45;;;;;;;20.54;43.94;100947.94;4398944;32;20114;-74
2021/07/01 03:52:08;;;;;;;23.23;11.43;;;;;;;20.71;43.71;100946.06;4400954;32;20411;-75
2021/07/01 03:54:34;;;;;;;18.87;11.43;;;;;;;20.72;43.63;100948.44;4402196;32;20062;-75
2021/07/01 03:57:00;;;;;;;20.33;11.25;;;;;;;20.70;43.70;100948.13;4402277;32;20794;-74
2021/07/01 03:59:26;;;;;;;22.25;11.82;;;;;;;20.73;43.83;100964.28;4402426;32;20348;-75
2021/07/01 04:01:52;;;;;;;18.42;11.45;;;;;;;20.69;44.01;100957.22;4399056;32;20068;-75
2021/07/01 04:04:18;;;;;;;17.73;11.38;;;;;;;20.58;44.11;100963.59;4400022;32;20068;-76
2021/07/01 04:06:43;;;;;;;21.02;11.02;;;;;;;20.75;43.98;100955.22;4400888;32;20065;-75
2021/07/01 04:09:09;;;;;;;24.42;12.23;;;;;;;20.66;44.02;100953.31;4399098;32;20366;-74
2021/07/01 04:11:35;;;;;;;24.15;12.65;;;;;;;20.60;44.06;100954.53;4400074;32;20057;-75
2021/07/01 04:14:02;;;;;;;21.87;12.45;;;;;;;20.68;44.04;100967.88;4401924;32;20038;-75
2021/07/01 04:16:28;;;;;;;19.15;11.35;;;;;;;20.79;43.89;100958.63;4399313;32;20079;-75
2021/07/01 04:18:54;;;;;;;20.62;11.18;;;;;;;20.74;43.58;100957.28;4408517;32;20504;-75
2021/07/01 04:21:24;;;;;;;23.35;11.65;;;;;;;20.94;43.35;100960.13;4401570;32;20046;-75
2021/07/01 04:23:50;;;;;;;21.90;11.43;;;;;;;20.89;43.26;100962.91;4398663;32;20082;-76
2021/07/01 04:26:16;;;;;;;22.40;11.55;;;;;;;20.83;43.32;100959.22;4400055;32;20072;-74
2021/07/01 04:28:42;;;;;;;18.33;11.73;;;;;;;20.92;43.04;100959.81;4400616;32;20049;-75
2021/07/01 04:31:09;;;;;;;21.90;11.65;;;;;;;21.00;42.91;100958.13;4399702;32;20104;-76
2021/07/01 04:33:35;;;;;;;20.70;11.73;;;;;;;21.10;42.80;100952.97;4401081;32;20107;-76
2021/07/01 04:36:01;;;;;;;20.08;12.13;;;;;;;20.97;42.56;100953.41;4399975;32;20064;-76
2021/07/01 04:38:27;;;;;;;17.80;11.63;;;;;;;21.18;42.53;100951.25;4399464;32;20085;-75
2021/07/01 04:40:55;;;;;;;17.95;12.10;;;;;;;21.37;42.21;100966.75;4399310;32;20516;-75
2021/07/01 04:43:21;;;;;;;21.70;12.40;;;;;;;21.31;42.60;100954.47;4400794;32;20056;-74
2021/07/01 04:45:47;;;;;;;20.30;12.20;;;;;;;21.49;42.09;100957.78;4400168;32;20097;-76
2021/07/01 04:48:13;;;;;;;22.40;12.75;;;;;;;21.80;41.52;100953.31;4401088;32;20541;-75
2021/07/01 04:50:39;;;;;;;23.95;12.18;;;;;;;21.88;41.27;100960.13;4396379;32;20068;-76
2021/07/01 04:53:05;;;;;;;23.67;12.57;;;;;;;22.04;41.17;100970.91;4399230;32;20096;-76
2021/07/01 04:55:30;;;;;;;25.98;12.13;;;;;;;22.23;41.02;100966.31;4400492;32;20042;-76
2021/07/01 04:57:57;;;;;;;20.55;11.90;;;;;;;22.18;41.05;100955.63;4398514;32;20077;-75
2021/07/01 05:00:22;;;;;;;20.77;12.48;;;;;;;22.36;40.67;100955.97;4401045;32;20459;-75
2021/07/01 05:02:48;;;;;;;21.20;11.88;;;;;;;22.37;40.62;100957.50;4398699;32;20069;-76
2021/07/01 05:05:14;;;;;;;25.80;12.18;;;;;;;22.58;40.18;100952.44;4400045;32;20100;-76
2021/07/01 05:07:42;;;;;;;21.17;11.30;;;;;;;22.65;40.08;100951.94;4398745;32;20085;-76
2021/07/01 05:10:09;;;;;;;27.98;13.25;;;;;;;23.05;39.59;100951.50;4399635;32;20072;-75
2021/07/01 05:12:35;;;;;;;23.20;13.18;;;;;;;22.97;39.47;100950.41;4399961;32;20470;-76
2021/07/01 05:15:02;;;;;;;28.12;12.68;;;;;;;22.84;39.52;100947.28;4401260;32;20042;-74
2021/07/01 05:17:28;;;;;;;25.45;12.15;;;;;;;23.08;39.34;100948.38;4398341;32;20077;-74
2021/07/01 05:19:54;;;;;;;23.02;12.43;;;;;;;23.13;39.20;100941.03;4398597;32;20361;-75
2021/07/01 05:22:19;;;;;;;25.05;13.43;;;;;;;23.21;39.04;100944.97;4398360;32;20663;-75
2021/07/01 05:24:45;;;;;;;26.92;13.90;;;;;;;23.19;38.84;100944.69;4400320;32;20077;-74
2021/07/01 05:27:11;;;;;;;24.23;13.10;;;;;;;23.28;38.82;100936.66;4397261;32;20394;-74
2021/07/01 05:29:37;;;;;;;24.73;12.43;;;;;;;23.00;39.34;100935.81;4400884;32;20074;-74
2021/07/01 05:32:03;;;;;;;30.40;13.02;;;;;;;23.26;39.08;100930.62;4397881;32;20443;-76
2021/07/01 05:34:29;;;;;;;25.25;12.25;;;;;;;23.31;38.97;100935.59;4399210;32;20038;-77
2021/07/01 05:36:54;;;;;;;26.92;13.40;;;;;;;23.50;38.67;100932.97;4398610;32;20115;-76
2021/07/01 05:39:20;;;;;;;24.05;12.52;;;;;;;23.56;38.60;100939.50;4398293;32;20046;-75
2021/07/01 05:41:46;;;;;;;21.30;11.60;;;;;;;23.58;38.57;100931.16;4399937;32;20480;-75
2021/07/01 05:44:13;;;;;;;25.83;12.57;;;;;;;23.60;38.36;100934.28;4398823;32;20057;-75
2021/07/01 05:46:39;;;;;;;29.73;13.85;;;;;;;23.65;38.36;100926.97;4398328;32;20050;-74
2021/07/01 05:49:05;;;;;;;23.58;13.60;;;;;;;23.71;38.09;100934.25;4396986;32;20125;-76
2021/07/01 05:51:33;;;;;;;27.75;13.55;;;;;;;23.71;37.98;100940.00;4399527;32;20054;-75
2021/07/01 05:56:38;;;;;;;27.63;14.23;;;;;;;24.18;37.33;100940.97;3951903;32;15861561;-74
2021/07/01 05:59:08;;;;;;;34.63;13.55;;;;;;;24.18;37.33;100940.97;4436702;32;20077;-75
2021/07/01 06:01:35;;;;;;;32.53;14.32;;;;;;;24.08;37.44;100945.44;4420109;32;21571;-74
2021/07/01 06:04:04;;;;;;;28.38;13.45;;;;;;;23.99;37.29;100940.75;4432157;32;20061;-75
2021/07/01 06:06:31;;;;;;;28.52;14.20;;;;;;;23.93;37.27;100931.31;4435276;32;20033;-75
2021/07/01 06:08:59;;;;;;;35.55;14.70;;;;;;;23.76;37.81;100942.09;4434296;32;20049;-74
2021/07/01 06:11:25;;;;;;;30.23;14.90;;;;;;;23.65;37.93;100947.84;4433321;32;20072;-75
2021/07/01 06:13:53;;;;;;;27.98;15.02;;;;;;;23.67;38.08;100938.72;4437826;32;20063;-74
2021/07/01 06:16:20;;;;;;;33.20;15.82;;;;;;;23.78;37.74;100941.56;4433899;32;20715;-76
2021/07/01 06:18:46;;;;;;;29.77;13.65;;;;;;;23.90;37.66;100941.00;4435347;32;20029;-75
2021/07/01 06:21:12;;;;;;;32.50;14.23;;;;;;;23.84;37.71;100942.34;4433923;32;20064;-74
2021/07/01 06:23:39;;;;;;;26.65;14.32;;;;;;;23.76;38.02;100947.06;4433397;32;20131;-75
2021/07/01 06:26:05;;;;;;;31.05;13.60;;;;;;;23.84;38.02;100950.97;4434642;32;20045;-75
2021/07/01 06:28:35;;;;;;;26.02;13.07;;;;;;;23.66;38.10;100949.44;4435660;32;20409;-75
2021/07/01 06:31:01;;;;;;;35.22;13.80;;;;;;;23.30;38.96;100959.09;4433460;32;20110;-75
2021/07/01 06:33:28;;;;;;;32.42;13.80;;;;;;;23.13;38.99;100961.94;4432921;32;20071;-75
2021/07/01 06:35:55;;;;;;;32.72;13.27;;;;;;;23.69;38.28;100959.88;4432373;32;20041;-76
2021/07/01 06:38:23;;;;;;;28.45;12.85;;;;;;;23.90;37.89;100958.25;4427902;32;20065;-74
2021/07/01 06:40:51;;;;;;;33.40;13.25;;;;;;;24.07;37.81;100953.28;4426383;32;20107;-76
2021/07/01 06:43:20;;;;;;;32.28;12.32;;;;;;;24.21;37.77;100962.91;4429773;32;20069;-76
2021/07/01 06:45:48;;;;;;;28.90;12.13;;;;;;;24.49;37.26;100963.59;4423092;32;20033;-76
2021/07/01 06:48:14;;;;;;;25.80;12.93;;;;;;;24.81;36.70;100962.66;4428795;32;20090;-77
2021/07/01 06:50:41;;;;;;;24.05;12.45;;;;;;;24.95;36.50;100973.03;4427595;32;20037;-76
2021/07/01 06:53:07;;;;;;;30.58;12.82;;;;;;;25.10;35.96;100961.19;4426603;32;20021;-76
2021/07/01 06:55:34;;;;;;;27.17;12.77;;;;;;;25.23;35.97;100962.13;4427839;32;20105;-76
2021/07/01 06:58:00;;;;;;;30.92;12.57;;;;;;;25.48;35.32;100967.97;4425078;32;20580;-76
2021/07/01 07:00:26;;;;;;;28.85;14.05;;;;;;;25.00;36.19;100978.00;4422439;32;20520;-75
2021/07/01 07:02:53;;;;;;;29.48;14.32;;;;;;;25.20;35.92;100971.84;4425648;32;20071;-74
2021/07/01 07:05:20;;;;;;;30.15;13.50;;;;;;;25.60;35.28;100975.19;4424699;32;20139;-76
2021/07/01 07:07:48;;;;;;;29.48;13.35;;;;;;;25.16;35.71;100984.97;4412061;32;20061;-75
2021/07/01 07:10:17;;;;;;;33.03;13.93;;;;;;;25.03;36.30;100979.00;4410177;32;20792;-75
2021/07/01 07:12:46;;;;;;;29.17;14.05;;;;;;;25.62;35.22;100979.13;4399039;32;20566;-75
2021/07/01 07:15:20;;;;;;;33.67;13.88;;;;;;;25.79;35.00;100976.06;4411986;32;20073;-76
2021/07/01 07:17:52;;;;;;;33.30;14.02;;;;;;;26.07;34.68;100977.38;4411790;32;20073;-76
2021/07/01 07:20:23;;;;;;;31.55;14.98;;;;;;;26.16;34.56;100976.22;4409237;32;20030;-75
2021/07/01 07:22:51;;;;;;;27.08;13.90;;;;;;;26.33;33.99;100985.50;4411548;32;20164;-74
2021/07/01 07:25:17;;;;;;;27.95;14.55;;;;;;;26.39;34.17;100986.19;4412290;32;21642;-75
2021/07/01 07:27:54;;;;;;;28.00;14.63;;;;;;;25.73;34.87;100978.22;4412549;32;20078;-76
2021/07/01 07:30:24;;;;;;;29.63;13.73;;;;;;;26.19;34.32;100981.72;4410913;32;20092;-75
2021/07/01 07:32:50;;;;;;;30.05;14.40;;;;;;;26.46;34.12;100980.59;4414941;32;20548;-76
2021/07/01 07:35:16;;;;;;;32.35;14.45;;;;;;;26.36;33.98;100982.31;4399774;32;20172;-75
2021/07/01 07:37:43;;;;;;;33.83;15.45;;;;;;;26.28;33.90;100977.66;4412758;32;20160;-76
2021/07/01 07:40:09;;;;;;;30.98;14.75;;;;;;;24.83;36.54;100977.31;4413300;32;20085;-75
2021/07/01 07:42:35;;;;;;;32.10;15.00;;;;;;;25.77;35.08;100978.72;4412983;32;20096;-74
2021/07/01 07:45:01;;;;;;;35.45;15.15;;;;;;;25.12;36.13;100967.97;4414754;32;20452;-74
2021/07/01 07:47:29;;;;;;;34.13;15.32;;;;;;;25.74;35.04;100976.91;4414141;32;20072;-74
2021/07/01 07:49:56;;;;;;;27.75;15.27;;;;;;;24.61;36.96;100968.75;4412119;32;20100;-75
2021/07/01 07:52:22;;;;;;;34.55;16.85;;;;;;;25.47;35.74;100975.84;4414724;32;20036;-75
2021/07/01 07:54:53;;;;;;;29.92;15.68;;;;;;;25.60;35.39;100980.97;4398634;32;20073;-76
2021/07/01 07:57:24;;;;;;;31.85;16.95;;;;;;;25.17;35.89;100981.56;4408760;32;20081;-76
2021/07/01 07:59:51;;;;;;;31.12;15.50;;;;;;;25.55;35.40;100981.81;4411231;32;20454;-75
2021/07/01 08:05:00;;;;;;;35.15;15.75;;;;;;;26.32;33.69;100975.28;3975599;32;15022857;-76
2021/07/01 08:07:27;;;;;;;29.80;15.30;;;;;;;26.46;33.14;100983.50;4428138;32;20101;-75
2021/07/01 08:09:52;;;;;;;27.35;14.32;;;;;;;26.76;32.79;100981.28;4428524;32;20132;-75
2021/07/01 08:12:19;;;;;;;25.67;13.93;;;;;;;26.95;32.15;100981.28;4421819;32;20045;-75
2021/07/01 08:14:45;;;;;;;29.65;15.52;;;;;;;26.65;31.78;100977.75;4423477;32;20089;-73
2021/07/01 08:17:14;;;;;;;27.83;14.50;;;;;;;26.71;31.86;100972.69;4423465;32;20108;-74
2021/07/01 08:19:40;;;;;;;25.02;14.07;;;;;;;26.80;32.06;100969.41;4423218;32;20038;-75
2021/07/01 08:22:09;;;;;;;25.17;13.00;;;;;;;27.19;31.31;100970.38;4424852;32;20127;-76
2021/07/01 08:24:36;;;;;;;27.98;14.52;;;;;;;27.45;30.85;100974.78;4423001;32;20356;-75
2021/07/01 08:27:02;;;;;;;26.45;14.75;;;;;;;27.01;31.60;100984.88;4423103;32;20077;-75
2021/07/01 08:29:27;;;;;;;28.75;15.77;;;;;;;27.36;31.13;100970.16;4427124;32;20448;-76
2021/07/01 08:32:05;;;;;;;26.77;13.85;;;;;;;27.28;31.00;100969.25;4422971;32;20520;-76
2021/07/01 08:34:35;;;;;;;31.67;14.27;;;;;;;27.94;30.41;100967.31;4423723;32;20085;-76
2021/07/01 08:37:01;;;;;;;27.23;13.20;;;;;;;28.33;29.88;100970.25;4422109;32;20413;-76
2021/07/01 08:39:32;;;;;;;21.58;11.18;;;;;;;28.33;29.14;100976.03;4417374;32;20088;-76
2021/07/01 08:42:01;;;;;;;18.87;10.50;;;;;;;28.30;27.99;100969.25;4404958;32;20089;-75
2021/07/01 08:44:42;;;;;;;18.15;10.82;;;;;;;28.60;27.81;100974.72;4426002;32;20071;-75
2021/07/01 08:47:12;;;;;;;18.12;10.40;;;;;;;28.60;27.53;100963.88;4421741;32;20652;-76
2021/07/01 08:49:57;;;;;;;18.52;10.25;;;;;;;28.92;26.94;100973.19;4424934;32;20168;-75
2021/07/01 08:52:26;;;;;;;21.63;10.10;;;;;;;29.23;26.17;100971.44;4424812;32;20554;-77
2021/07/01 08:55:02;;;;;;;16.95;9.32;;;;;;;29.48;26.21;100981.34;4425371;32;20049;-77
2021/07/01 08:57:33;;;;;;;17.00;8.77;;;;;;;30.07;25.21;100976.69;4426960;32;20050;-75
2021/07/01 09:02:50;;;;;;;18.00;8.90;;;;;;;31.48;23.29;100983.78;3951734;32;15021658;-75
2021/07/01 09:05:18;;;;;;;14.63;7.45;;;;;;;31.48;23.29;100983.78;4400030;32;20062;-77
2021/07/01 09:07:51;;;;;;;14.23;7.28;;;;;;;31.01;22.98;100974.72;4398047;32;20623;-74
2021/07/01 09:10:18;;;;;;;16.10;7.47;;;;;;;31.80;21.98;100975.25;4398613;32;20072;-76
2021/07/01 09:12:58;;;;;;;18.52;7.55;;;;;;;30.54;23.59;100960.56;4395286;32;20531;-75
2021/07/01 09:15:26;;;;;;;16.45;7.05;;;;;;;31.62;22.63;100964.78;4394444;32;20103;-75
2021/07/01 09:17:52;;;;;;;15.77;7.97;;;;;;;31.65;22.08;100963.63;4399025;32;20089;-75
2021/07/01 09:20:23;;;;;;;13.25;6.75;;;;;;;31.83;21.95;100961.69;4395025;32;21628;-73
2021/07/01 09:22:53;;;;;;;12.90;6.70;;;;;;;32.19;20.93;100956.44;4394531;32;20569;-74
2021/07/01 09:25:21;;;;;;;15.05;6.55;;;;;;;32.22;21.05;100950.22;4394889;32;20094;-75
2021/07/01 09:27:49;;;;;;;14.00;6.05;;;;;;;32.03;20.86;100957.81;4395922;32;20393;-76
2021/07/01 09:30:18;;;;;;;11.63;6.22;;;;;;;31.71;21.28;100960.50;4398700;32;20077;-75
2021/07/01 09:32:44;;;;;;;13.95;6.18;;;;;;;32.57;20.26;100965.87;4394958;32;20430;-75
2021/07/01 09:35:12;;;;;;;9.68;6.12;;;;;;;31.98;21.15;100961.69;4395445;32;20209;-75
2021/07/01 09:37:42;;;;;;;14.35;7.03;;;;;;;32.03;21.09;100955.66;4394796;32;20135;-76
2021/07/01 09:40:09;;;;;;;16.02;6.80;;;;;;;32.22;20.42;100958.19;4398422;32;20104;-74
2021/07/01 09:42:35;;;;;;;13.55;6.78;;;;;;;31.38;21.61;100964.56;4401090;32;20018;-78
2021/07/01 09:45:06;;;;;;;12.95;5.90;;;;;;;31.38;21.41;100962.41;4397628;32;20411;-75
2021/07/01 09:47:37;;;;;;;11.68;5.93;;;;;;;31.97;20.91;100960.91;4384504;32;21018;-75
2021/07/01 09:50:05;;;;;;;12.77;6.28;;;;;;;32.17;20.89;100957.00;4391964;32;20178;-75
2021/07/01 09:52:39;;;;;;;12.43;6.45;;;;;;;32.08;21.30;100956.81;4396025;32;20038;-75
2021/07/01 09:55:05;;;;;;;14.27;5.57;;;;;;;33.10;20.24;100957.69;4386869;32;20079;-75
2021/07/01 09:57:36;;;;;;;12.32;5.05;;;;;;;33.45;19.57;100955.75;4399082;32;20057;-75
2021/07/01 10:00:11;;;;;;;16.37;5.20;;;;;;;33.39;19.51;100955.19;4402330;32;20149;-75
2021/07/01 10:02:37;;;;;;;10.40;4.73;;;;;;;34.33;18.48;100957.72;4400521;32;20246;-75
2021/07/01 10:05:06;;;;;;;10.65;5.37;;;;;;;34.16;18.70;100957.69;4397011;32;20091;-75
2021/07/01 10:07:32;;;;;;;12.02;5.53;;;;;;;34.18;18.42;100955.69;4399658;32;20430;-77
2021/07/01 10:10:12;;;;;;;10.90;5.53;;;;;;;33.40;18.87;100960.44;4396571;32;20137;-75
2021/07/01 10:12:59;;;;;;;9.73;5.50;;;;;;;33.90;18.14;100961.25;4397488;32;20157;-74
2021/07/01 10:15:31;;;;;;;8.10;4.78;;;;;;;34.51;17.65;100959.25;4391524;32;20073;-75
2021/07/01 10:20:50;;;;;;;10.90;5.00;;;;;;;34.31;17.56;100955.37;3974105;32;15022966;-76
2021/07/01 10:25:56;;;;;;;10.85;4.90;;;;;;;34.39;17.46;100955.34;3926500;32;15723554;-75
2021/07/01 10:28:24;;;;;;;9.23;5.00;;;;;;;34.39;17.46;100955.34;4398488;32;20354;-74
2021/07/01 10:31:10;;;;;;;11.38;4.93;;;;;;;34.58;16.97;100960.56;4396472;32;20138;-73
2021/07/01 10:33:39;;;;;;;14.45;5.12;;;;;;;34.89;16.83;100953.75;4399456;32;20164;-74
2021/07/01 10:36:13;;;;;;;10.05;5.00;;;;;;;34.61;17.11;100957.22;4398023;32;20058;-75
2021/07/01 10:38:45;;;;;;;7.85;4.97;;;;;;;34.28;17.42;100947.03;4382428;32;20038;-74
2021/07/01 10:41:12;;;;;;;15.75;5.55;;;;;;;35.36;16.42;100953.31;4396976;32;20099;-75
2021/07/01 10:46:14;;;;;;;11.80;4.62;;;;;;;35.29;16.35;100945.37;3977339;32;15028391;-77
2021/07/01 10:48:40;;;;;;;11.98;5.25;;;;;;;34.68;17.00;100941.72;4427355;32;20100;-75
2021/07/01 10:53:46;;;;;;;10.07;4.75;;;;;;;34.63;16.90;100939.06;3970339;32;15024444;-77
2021/07/01 10:58:56;;;;;;;12.10;4.90;;;;;;;36.23;16.02;100940.50;3975758;32;15022103;-75
2021/07/01 11:01:25;;;;;;;10.40;4.78;;;;;;;36.23;16.02;100940.50;4426242;32;20472;-74
2021/07/01 11:04:09;;;;;;;9.70;4.75;;;;;;;35.98;16.03;100943.69;4418155;32;20445;-78
2021/07/01 11:06:38;;;;;;;9.80;4.97;;;;;;;36.50;15.82;100947.03;4419639;32;20643;-73
2021/07/01 11:09:07;;;;;;;8.13;4.78;;;;;;;36.35;15.52;100935.59;4419634;32;20072;-76
2021/07/01 11:11:36;;;;;;;10.68;5.47;;;;;;;36.38;14.97;100939.47;4423610;32;20045;-75
2021/07/01 11:14:07;;;;;;;12.98;5.65;;;;;;;35.91;15.69;100937.97;4424570;32;20083;-75
2021/07/01 11:16:39;;;;;;;8.07;4.57;;;;;;;36.38;15.30;100936.53;4419140;32;20060;-75
2021/07/01 11:19:08;;;;;;;9.15;5.07;;;;;;;36.30;15.13;100936.69;4417537;32;20933;-76
2021/07/01 11:21:34;;;;;;;11.10;4.55;;;;;;;35.83;15.29;100937.34;4415438;32;20090;-75
2021/07/01 11:26:53;;;;;;;10.05;4.00;;;;;;;37.09;14.86;100925.84;3954722;32;15022570;-76
2021/07/01 11:29:40;;;;;;;8.55;4.80;;;;;;;37.09;14.86;100925.84;4410777;32;20053;-78
2021/07/01 11:32:24;;;;;;;13.13;5.37;;;;;;;36.65;15.01;100926.19;4412061;32;20450;-76
2021/07/01 11:34:52;;;;;;;7.22;4.45;;;;;;;37.19;14.26;100926.56;4407657;32;20038;-76
2021/07/01 11:37:38;;;;;;;7.68;4.60;;;;;;;37.78;13.79;100917.72;4409389;32;20077;-75